Time;durP1;ratioP1;P1;durP2;ratioP2;P2;SDS_P1;SDS_P2;PMS_P1;PMS_P2;Temp;Humidity;BMP_temperature;BMP_pressure;BME280_temperature;BME280_humidity;BME280_pressure;Samples;Min_cycle;Max_cycle;Signal;HPM_P1;HPM_P2
2021/07/13 00:01:21;;;;;;;10.85;4.05;;;;;;;13.60;89.12;90239.31;4978478;28;20623;-88
2021/07/13 00:03:57;;;;;;;7.68;1.83;;;;;;;13.77;88.91;90255.50;4994739;28;20034;-87
2021/07/13 00:06:43;;;;;;;3.72;1.42;;;;;;;13.91;86.94;90257.50;4978148;28;20018;-88
2021/07/13 00:09:18;;;;;;;4.50;1.60;;;;;;;13.78;87.30;90255.16;4979455;28;20026;-86
2021/07/13 00:12:01;;;;;;;7.53;1.67;;;;;;;13.65;88.09;90246.09;4977737;28;20497;-87
2021/07/13 00:14:40;;;;;;;7.80;2.70;;;;;;;13.63;88.37;90253.53;4994265;28;20037;-87
2021/07/13 00:17:17;;;;;;;10.50;2.90;;;;;;;13.63;88.72;90264.00;4978073;28;20030;-87
2021/07/13 00:19:53;;;;;;;13.50;1.65;;;;;;;13.73;86.92;90263.34;4993922;28;20053;-88
2021/07/13 00:22:26;;;;;;;7.18;1.75;;;;;;;13.62;87.77;90257.28;4993100;28;20026;-87
2021/07/13 00:25:04;;;;;;;4.53;1.50;;;;;;;13.63;87.61;90248.31;4995337;28;20022;-87
2021/07/13 00:27:47;;;;;;;4.95;1.60;;;;;;;13.66;87.51;90242.34;4997069;28;20534;-87
2021/07/13 00:30:26;;;;;;;8.38;1.77;;;;;;;13.60;87.45;90239.31;5012332;28;20038;-87
2021/07/13 00:33:01;;;;;;;3.42;1.23;;;;;;;13.63;87.12;90222.13;4997406;28;20038;-87
2021/07/13 00:35:38;;;;;;;3.85;1.27;;;;;;;13.65;87.02;90206.06;5012501;28;20479;-86
2021/07/13 00:38:18;;;;;;;4.38;1.40;;;;;;;13.54;87.97;90211.97;4997027;28;20038;-87
2021/07/13 00:40:50;;;;;;;4.82;1.13;;;;;;;13.55;88.18;90220.56;5012113;28;20026;-88
2021/07/13 00:43:27;;;;;;;6.65;1.70;;;;;;;13.44;88.66;90209.25;4979950;28;20036;-88
2021/07/13 00:46:08;;;;;;;7.45;1.60;;;;;;;13.53;86.90;90218.31;4996873;28;20390;-87
2021/07/13 00:48:47;;;;;;;5.57;1.63;;;;;;;13.60;86.99;90213.16;4996916;28;20026;-87
2021/07/13 00:51:28;;;;;;;4.68;1.50;;;;;;;13.39;87.91;90218.97;4992928;28;20053;-86
2021/07/13 00:54:10;;;;;;;9.10;1.52;;;;;;;13.31;88.15;90222.59;4977617;28;20022;-87
2021/07/13 00:56:51;;;;;;;6.53;1.40;;;;;;;13.36;88.83;90243.22;4992687;28;20026;-87
2021/07/13 00:59:27;;;;;;;4.18;1.40;;;;;;;13.31;89.48;90254.00;4976966;28;20037;-87
2021/07/13 01:02:05;;;;;;;5.97;1.58;;;;;;;13.33;89.42;90238.72;5008352;28;20030;-87
2021/07/13 01:04:49;;;;;;;8.23;1.35;;;;;;;13.36;88.72;90230.16;5008321;28;20398;-87
2021/07/13 01:07:45;;;;;;;3.83;1.40;;;;;;;13.37;88.49;90236.13;4992415;28;20034;-87
2021/07/13 01:10:42;;;;;;;6.95;1.38;;;;;;;13.55;87.85;90225.81;4992290;28;20034;-86
2021/07/13 01:13:42;;;;;;;8.95;1.48;;;;;;;13.31;88.91;90212.13;4992181;28;20037;-87
2021/07/13 01:16:45;;;;;;;5.35;1.38;;;;;;;13.26;89.35;90202.03;4988955;28;20018;-88
2021/07/13 01:19:33;;;;;;;4.07;1.27;;;;;;;13.42;87.72;90201.00;4992011;28;20433;-85
2021/07/13 01:22:15;;;;;;;4.18;1.38;;;;;;;13.36;88.79;90209.22;5008169;28;20049;-87
2021/07/13 01:25:26;;;;;;;6.90;1.67;;;;;;;13.29;89.18;90197.94;4978365;28;20430;-87
2021/07/13 01:28:21;;;;;;;6.25;1.60;;;;;;;13.31;88.86;90201.69;5011536;28;20025;-87
2021/07/13 01:30:56;;;;;;;5.38;1.30;;;;;;;13.25;89.07;90197.91;5011097;28;20046;-87
2021/07/13 01:33:36;;;;;;;7.78;1.33;;;;;;;13.27;89.23;90202.75;4995946;28;20037;-87
2021/07/13 01:36:14;;;;;;;6.18;1.65;;;;;;;13.21;88.78;90206.78;4980051;28;20474;-87
2021/07/13 01:38:55;;;;;;;8.27;1.70;;;;;;;13.33;88.49;90219.66;4995670;28;20025;-86
2021/07/13 01:41:31;;;;;;;6.20;1.23;;;;;;;13.29;88.79;90214.38;4995538;28;20426;-88
2021/07/13 01:44:04;;;;;;;5.28;1.38;;;;;;;13.33;89.17;90215.16;4995874;28;20021;-87
2021/07/13 01:46:38;;;;;;;5.20;1.33;;;;;;;13.27;89.23;90208.75;4995537;28;20026;-86
2021/07/13 01:49:22;;;;;;;2.88;1.13;;;;;;;13.26;89.32;90196.78;4994970;28;20026;-85
2021/07/13 01:52:03;;;;;;;7.13;1.63;;;;;;;13.19;89.75;90199.31;4995919;28;20478;-86
2021/07/13 01:54:40;;;;;;;6.72;1.65;;;;;;;13.22;90.44;90218.78;4995772;28;20025;-87
2021/07/13 01:57:17;;;;;;;3.55;1.60;;;;;;;13.21;90.15;90217.25;4995767;28;20434;-86
2021/07/13 01:59:58;;;;;;;9.10;2.20;;;;;;;13.20;89.98;90205.28;5011158;28;20056;-87
2021/07/13 02:02:37;;;;;;;7.03;1.50;;;;;;;13.18;90.09;90217.97;4995639;28;20033;-87
2021/07/13 02:05:19;;;;;;;6.70;1.40;;;;;;;13.22;89.63;90205.69;4979556;28;20730;-86
2021/07/13 02:07:54;;;;;;;5.60;1.73;;;;;;;13.20;90.15;90194.81;4995767;28;20027;-87
2021/07/13 02:10:28;;;;;;;7.65;1.65;;;;;;;13.23;90.01;90191.50;4994583;28;20506;-87
2021/07/13 02:13:12;;;;;;;7.93;2.58;;;;;;;13.17;90.02;90188.44;4995293;28;20045;-87
2021/07/13 02:15:45;;;;;;;7.00;1.70;;;;;;;13.09;90.66;90179.03;4979909;28;20446;-87
2021/07/13 02:18:23;;;;;;;5.03;1.38;;;;;;;13.13;90.44;90174.59;5010533;28;20541;-86
2021/07/13 02:20:57;;;;;;;5.63;2.15;;;;;;;13.17;90.01;90175.38;5010552;28;20514;-86
2021/07/13 02:23:38;;;;;;;4.95;1.75;;;;;;;13.18;90.04;90189.97;4994914;28;20022;-87
2021/07/13 02:26:15;;;;;;;6.35;1.52;;;;;;;13.20;90.38;90206.03;4991415;28;20399;-86
2021/07/13 02:28:57;;;;;;;3.03;1.42;;;;;;;13.36;89.69;90213.69;4990870;28;20026;-88
2021/07/13 02:31:41;;;;;;;6.47;1.50;;;;;;;13.27;89.34;90232.28;4975311;28;20438;-87
2021/07/13 02:34:18;;;;;;;9.32;1.50;;;;;;;13.34;88.18;90247.31;4976394;28;20038;-86
2021/07/13 02:37:07;;;;;;;5.72;1.00;;;;;;;13.29;88.04;90251.00;4991219;28;20038;-86
2021/07/13 02:39:46;;;;;;;4.72;1.05;;;;;;;13.21;88.59;90228.47;4990754;28;20022;-87
2021/07/13 02:42:26;;;;;;;5.25;1.50;;;;;;;13.19;89.54;90211.63;4959594;28;20113;-87
2021/07/13 02:45:08;;;;;;;3.90;1.40;;;;;;;13.07;89.70;90210.03;4975543;28;20026;-87
2021/07/13 02:47:50;;;;;;;5.65;1.35;;;;;;;13.04;90.43;90211.50;4976084;28;20045;-87
2021/07/13 02:50:22;;;;;;;5.32;1.13;;;;;;;13.36;88.39;90190.88;4975309;28;20023;-87
2021/07/13 02:52:57;;;;;;;7.57;1.45;;;;;;;13.14;89.56;90168.22;4975279;28;20109;-88
2021/07/13 02:55:32;;;;;;;3.55;1.52;;;;;;;12.97;90.32;90176.66;4975432;28;20030;-87
2021/07/13 02:58:12;;;;;;;3.63;1.42;;;;;;;13.00;90.42;90183.78;4974902;28;20042;-87
2021/07/13 03:00:50;;;;;;;5.93;1.30;;;;;;;13.02;90.45;90176.34;4959029;28;20490;-88
2021/07/13 03:03:27;;;;;;;4.22;1.58;;;;;;;12.98;90.67;90158.03;5018249;23;20042;-86
2021/07/13 03:06:05;;;;;;;6.90;2.00;;;;;;;13.11;89.34;90140.19;4998767;28;20017;-86
2021/07/13 03:08:46;;;;;;;3.13;1.00;;;;;;;13.01;90.10;90140.88;4999228;28;20033;-86
2021/07/13 03:11:19;;;;;;;3.45;1.20;;;;;;;13.04;89.79;90161.03;4998699;28;20029;-87
2021/07/13 03:13:59;;;;;;;4.28;1.30;;;;;;;13.07;89.94;90171.56;4999211;28;20034;-86
2021/07/13 03:16:43;;;;;;;7.18;1.48;;;;;;;13.08;89.86;90167.06;4999036;28;20049;-86
2021/07/13 03:19:17;;;;;;;;;;;;;;;13.05;90.00;90167.78;5003173;28;20026;-84
2021/07/13 03:21:57;;;;;;;5.57;1.40;;;;;;;12.99;90.43;90171.84;5010312;28;19913;-86
2021/07/13 03:24:34;;;;;;;4.68;1.35;;;;;;;12.95;90.76;90163.22;4998756;28;20026;-86
2021/07/13 03:27:13;;;;;;;3.40;1.27;;;;;;;12.93;90.55;90150.47;4994434;28;20113;-87
2021/07/13 03:29:39;;;;;;;4.75;1.05;;;;;;;12.92;90.54;90144.50;5010849;28;20033;-84
2021/07/13 03:32:17;;;;;;;2.42;1.00;;;;;;;12.96;90.83;90135.94;4994434;28;20409;-86
2021/07/13 03:34:58;;;;;;;3.72;1.30;;;;;;;13.09;89.98;90137.19;4979034;28;20054;-85
2021/07/13 03:37:38;;;;;;;3.83;1.20;;;;;;;12.99;89.84;90133.34;4979206;28;20487;-86
2021/07/13 03:40:18;;;;;;;5.57;1.23;;;;;;;13.11;89.32;90122.63;4978679;28;20413;-86
2021/07/13 03:42:54;;;;;;;5.22;2.28;;;;;;;12.89;89.70;90124.31;4978803;28;20105;-86
2021/07/13 03:45:32;;;;;;;5.38;1.38;;;;;;;12.89;90.41;90134.00;5007994;28;20022;-86
2021/07/13 03:48:07;;;;;;;3.25;1.10;;;;;;;12.86;90.79;90135.50;5014938;28;20029;-86
2021/07/13 03:50:42;;;;;;;6.07;1.30;;;;;;;12.81;91.26;90135.81;5013963;28;20033;-86
2021/07/13 03:53:21;;;;;;;5.60;1.30;;;;;;;12.84;91.11;90126.50;4997164;28;20018;-87
2021/07/13 03:55:57;;;;;;;4.85;1.48;;;;;;;12.83;91.01;90131.00;4998205;28;20040;-86
2021/07/13 03:58:37;;;;;;;4.85;1.63;;;;;;;12.82;91.08;90145.16;4997890;28;20022;-87
2021/07/13 04:01:14;;;;;;;6.28;1.60;;;;;;;12.87;90.91;90157.19;5013327;28;20025;-86
2021/07/13 04:03:50;;;;;;;6.15;1.10;;;;;;;12.91;91.14;90161.31;5012873;28;20037;-85
2021/07/13 04:06:32;;;;;;;3.88;1.65;;;;;;;12.88;90.83;90159.41;5013563;28;20026;-86
2021/07/13 04:09:12;;;;;;;5.55;1.77;;;;;;;12.97;90.63;90160.97;5014337;28;20053;-86
2021/07/13 04:11:50;;;;;;;4.32;1.00;;;;;;;13.01;90.44;90159.16;5012810;28;20026;-87
2021/07/13 04:14:28;;;;;;;2.20;0.68;;;;;;;12.99;89.93;90156.16;4997806;28;20490;-86
2021/07/13 04:17:07;;;;;;;3.55;0.63;;;;;;;12.94;90.18;90157.25;5014096;28;20033;-86
2021/07/13 04:19:47;;;;;;;3.65;0.80;;;;;;;12.90;90.69;90172.91;4997664;28;20091;-88
2021/07/13 04:22:26;;;;;;;5.43;0.80;;;;;;;12.94;90.80;90167.69;4997237;28;20030;-86
2021/07/13 04:25:01;;;;;;;3.20;0.80;;;;;;;12.95;90.33;90160.59;5008474;28;20030;-86
2021/07/13 04:27:38;;;;;;;3.15;0.95;;;;;;;12.93;90.70;90166.19;4977431;28;20494;-87
2021/07/13 04:30:23;;;;;;;2.05;0.43;;;;;;;12.98;89.01;90167.72;4977567;28;20058;-86
2021/07/13 04:32:55;;;;;;;;;;;;;;;12.98;89.68;90171.09;4993685;28;20030;-86
2021/07/13 04:35:29;;;;;;;1.17;0.47;;;;;;;13.05;88.77;90175.63;4976656;28;19965;-86
2021/07/13 04:38:10;;;;;;;1.70;0.30;;;;;;;13.01;89.24;90188.69;4993134;28;20580;-86
2021/07/13 04:40:49;;;;;;;1.88;0.20;;;;;;;13.00;89.30;90184.53;4977806;28;20026;-87
2021/07/13 04:43:22;;;;;;;0.90;0.10;;;;;;;12.96;87.72;90185.63;4977885;28;20102;-86
2021/07/13 04:46:01;;;;;;;0.43;0.10;;;;;;;13.00;86.88;90194.25;4986926;28;20026;-86
2021/07/13 04:48:38;;;;;;;0.20;0.10;;;;;;;12.96;87.25;90196.84;5012646;28;20466;-85
2021/07/13 04:51:15;;;;;;;0.00;0.00;;;;;;;12.98;86.00;90193.88;5012591;28;20076;-85
2021/07/13 04:53:48;;;;;;;0.55;0.10;;;;;;;12.90;86.51;90193.81;5038250;28;20017;-89
2021/07/13 04:56:29;;;;;;;0.03;0.00;;;;;;;12.81;85.94;90195.94;5039596;28;20024;-88
2021/07/13 04:59:14;;;;;;;1.58;0.00;;;;;;;12.66;85.55;90194.31;5014557;28;20398;-85
2021/07/13 05:01:59;;;;;;;0.40;0.00;;;;;;;12.36;85.15;90191.72;5013622;28;20167;-84
2021/07/13 05:04:35;;;;;;;;;;;;;;;12.27;85.48;90189.38;4988404;28;20550;-85
2021/07/13 05:07:12;;;;;;;0.00;0.00;;;;;;;11.98;85.94;90183.06;4993607;28;19909;-85
2021/07/13 05:09:52;;;;;;;0.00;0.00;;;;;;;11.95;86.16;90181.91;4976711;28;20061;-87
2021/07/13 05:12:27;;;;;;;0.73;0.00;;;;;;;11.83;85.75;90176.84;4980941;28;20022;-85
2021/07/13 05:15:04;;;;;;;0.00;0.00;;;;;;;11.77;86.13;90186.13;4987823;28;20506;-85
2021/07/13 05:17:46;;;;;;;0.10;0.00;;;;;;;11.79;85.39;90191.72;5028206;28;20034;-85
2021/07/13 05:20:21;;;;;;;0.20;0.00;;;;;;;11.70;85.75;90173.72;5013274;28;20026;-85
2021/07/13 05:22:58;;;;;;;;;;;;;;;11.68;85.57;90162.84;5026956;28;20518;-85
2021/07/13 05:25:39;;;;;;;0.00;0.00;;;;;;;11.65;84.63;90171.38;5012908;28;20309;-86
2021/07/13 05:28:12;;;;;;;0.65;0.00;;;;;;;11.57;86.31;90174.25;5009747;28;20022;-85
2021/07/13 05:30:50;;;;;;;0.00;0.00;;;;;;;11.55;85.71;90186.91;4976326;28;20403;-87
2021/07/13 05:33:28;;;;;;;0.10;0.00;;;;;;;11.51;84.97;90188.69;4992637;28;20030;-85
2021/07/13 05:36:04;;;;;;;0.00;0.00;;;;;;;11.50;85.14;90185.34;4992680;28;20027;-86
2021/07/13 05:38:42;;;;;;;0.15;0.00;;;;;;;11.46;85.56;90190.50;4976406;28;20033;-86
2021/07/13 05:41:21;;;;;;;1.27;0.10;;;;;;;11.53;85.77;90189.13;4992904;28;20537;-87
2021/07/13 05:43:55;;;;;;;0.00;0.00;;;;;;;11.39;86.04;90179.97;4960993;28;20073;-87
2021/07/13 05:46:22;;;;;;;0.10;0.00;;;;;;;11.55;85.24;90185.03;4984288;28;20017;-86
2021/07/13 05:48:49;;;;;;;0.10;0.00;;;;;;;11.56;84.05;90188.41;4990578;28;20030;-85
2021/07/13 05:51:18;;;;;;;0.10;0.00;;;;;;;11.41;86.69;90183.00;5009970;28;20032;-87
2021/07/13 05:53:50;;;;;;;0.00;0.00;;;;;;;11.39;85.47;90195.63;4995231;28;20026;-86
2021/07/13 05:56:17;;;;;;;0.10;0.10;;;;;;;11.43;86.05;90196.41;5011596;28;20390;-85
2021/07/13 05:58:49;;;;;;;1.45;0.00;;;;;;;11.36;84.79;90185.88;5012300;28;20047;-85
2021/07/13 06:01:21;;;;;;;0.30;0.00;;;;;;;11.30;86.34;90181.31;5012010;28;20681;-86
2021/07/13 06:03:47;;;;;;;0.00;0.00;;;;;;;11.31;85.42;90180.19;4994461;28;20029;-85
2021/07/13 06:06:14;;;;;;;0.00;0.00;;;;;;;11.34;85.54;90182.88;4994437;28;20164;-85
2021/07/13 06:08:48;;;;;;;0.13;0.00;;;;;;;11.21;85.17;90178.94;5011848;28;20018;-85
2021/07/13 06:11:15;;;;;;;0.10;0.00;;;;;;;11.33;85.29;90189.19;5006772;28;20034;-85
2021/07/13 06:13:43;;;;;;;1.55;0.00;;;;;;;11.40;85.21;90202.34;4990837;28;20022;-85
2021/07/13 06:16:22;;;;;;;1.13;0.00;;;;;;;11.27;85.46;90203.59;5007726;28;20029;-85
2021/07/13 06:18:54;;;;;;;0.00;0.00;;;;;;;11.21;85.00;90195.34;4975949;28;20046;-85
2021/07/13 06:21:21;;;;;;;0.00;0.00;;;;;;;11.26;85.19;90207.34;4992074;28;20030;-86
2021/07/13 06:23:48;;;;;;;0.10;0.00;;;;;;;11.26;85.17;90217.75;4991860;28;20025;-85
2021/07/13 06:26:15;;;;;;;0.28;0.00;;;;;;;11.31;84.31;90214.88;5002476;28;20087;-86
2021/07/13 06:28:52;;;;;;;0.05;0.00;;;;;;;11.17;85.29;90225.09;5006486;28;20379;-86
2021/07/13 06:31:18;;;;;;;1.08;0.00;;;;;;;11.13;85.51;90230.25;5010174;28;20033;-87
2021/07/13 06:33:45;;;;;;;1.65;0.00;;;;;;;11.05;86.57;90231.19;4994323;28;20026;-87
2021/07/13 06:36:11;;;;;;;0.00;0.00;;;;;;;11.22;86.29;90237.81;5002758;28;20505;-87
2021/07/13 06:38:38;;;;;;;0.05;0.00;;;;;;;11.09;86.06;90233.88;4993622;28;20122;-85
2021/07/13 06:41:05;;;;;;;0.00;0.00;;;;;;;11.12;86.32;90222.75;4990701;28;20113;-85
2021/07/13 06:43:32;;;;;;;0.05;0.00;;;;;;;11.18;86.46;90213.53;4984016;28;20044;-85
2021/07/13 06:45:58;;;;;;;1.17;0.10;;;;;;;11.26;87.64;90207.34;4991074;28;20027;-86
2021/07/13 06:48:25;;;;;;;0.10;0.10;;;;;;;11.36;86.89;90219.03;4990398;28;20037;-86
2021/07/13 06:50:55;;;;;;;0.17;0.00;;;;;;;11.42;85.79;90217.66;4990490;28;20153;-86
2021/07/13 06:53:23;;;;;;;0.00;0.00;;;;;;;11.32;86.14;90221.59;5010147;28;20026;-86
2021/07/13 06:55:50;;;;;;;1.45;0.00;;;;;;;11.22;86.94;90217.72;5015263;28;20089;-86
2021/07/13 06:58:17;;;;;;;0.85;0.22;;;;;;;11.36;85.50;90216.44;4991582;28;20034;-86
2021/07/13 07:00:45;;;;;;;0.00;0.00;;;;;;;11.19;87.33;90220.25;4991635;28;20029;-86
2021/07/13 07:03:10;;;;;;;0.00;0.00;;;;;;;11.24;86.02;90231.16;5005085;28;20494;-85
2021/07/13 07:05:37;;;;;;;0.00;0.00;;;;;;;11.30;86.80;90229.00;4993206;28;20057;-86
2021/07/13 07:08:05;;;;;;;0.00;0.00;;;;;;;11.31;86.87;90232.34;5008919;28;20075;-86
2021/07/13 07:10:33;;;;;;;0.00;0.00;;;;;;;11.35;87.06;90230.59;4999411;28;20053;-86
2021/07/13 07:12:58;;;;;;;0.03;0.00;;;;;;;11.43;85.71;90222.50;4998774;28;20038;-86
2021/07/13 07:15:27;;;;;;;0.00;0.00;;;;;;;11.30;85.94;90228.25;4990240;28;20243;-87
2021/07/13 07:17:53;;;;;;;0.00;0.00;;;;;;;11.31;86.03;90225.31;5006049;28;20461;-85
2021/07/13 07:20:23;;;;;;;0.00;0.00;;;;;;;11.24;86.47;90235.63;5004982;28;20490;-85
2021/07/13 07:22:53;;;;;;;1.08;0.00;;;;;;;11.20;86.75;90240.78;5022025;28;20537;-86
2021/07/13 07:25:24;;;;;;;0.10;0.00;;;;;;;11.21;85.89;90250.09;5012001;28;20060;-85
2021/07/13 07:27:55;;;;;;;0.00;0.00;;;;;;;11.12;86.65;90239.13;5010160;28;20037;-86
2021/07/13 07:30:23;;;;;;;0.30;0.10;;;;;;;11.01;86.77;90241.56;4998711;28;20454;-85
2021/07/13 07:32:50;;;;;;;0.13;0.10;;;;;;;11.04;85.98;90255.03;4989390;28;20028;-86
2021/07/13 07:35:17;;;;;;;0.22;0.10;;;;;;;10.89;86.72;90256.63;4975391;28;20026;-86
2021/07/13 07:37:44;;;;;;;0.05;0.03;;;;;;;10.95;85.54;90270.88;5009712;28;20025;-86
2021/07/13 07:40:12;;;;;;;1.83;0.17;;;;;;;10.88;87.58;90271.50;5009110;28;20148;-86
2021/07/13 07:42:38;;;;;;;0.40;0.20;;;;;;;10.86;86.85;90273.69;5009529;28;20046;-86
2021/07/13 07:45:06;;;;;;;1.88;0.17;;;;;;;10.92;87.49;90263.75;4976748;28;20087;-86
2021/07/13 07:47:33;;;;;;;0.25;0.10;;;;;;;10.91;85.49;90264.84;4998650;28;20034;-86
2021/07/13 07:49:59;;;;;;;0.57;0.10;;;;;;;10.73;86.06;90264.50;4961052;28;20030;-87
2021/07/13 07:52:25;;;;;;;0.43;0.20;;;;;;;10.65;87.39;90270.69;5008667;28;20493;-85
2021/07/13 07:54:50;;;;;;;0.75;0.20;;;;;;;10.82;85.38;90274.75;5013204;28;20113;-86
2021/07/13 07:57:16;;;;;;;1.65;0.10;;;;;;;10.85;84.80;90280.03;4996788;28;20553;-86
2021/07/13 07:59:43;;;;;;;0.57;0.10;;;;;;;10.84;85.92;90286.31;4997073;28;20493;-86
2021/07/13 08:02:09;;;;;;;1.23;0.17;;;;;;;10.77;84.25;90286.19;4996252;28;20038;-85
2021/07/13 08:04:35;;;;;;;1.00;0.20;;;;;;;10.76;84.87;90285.44;4985203;28;20030;-87
2021/07/13 08:07:02;;;;;;;0.30;0.10;;;;;;;10.70;85.14;90286.03;4994598;28;20029;-86
2021/07/13 08:09:28;;;;;;;0.93;0.10;;;;;;;10.75;85.49;90291.75;5012281;28;20036;-86
2021/07/13 08:11:54;;;;;;;0.30;0.15;;;;;;;10.76;85.29;90293.25;5012443;28;20065;-87
2021/07/13 08:14:21;;;;;;;0.57;0.30;;;;;;;10.76;86.30;90301.06;5012324;28;20061;-88
2021/07/13 08:16:49;;;;;;;0.50;0.20;;;;;;;10.90;84.32;90307.66;5012401;28;20034;-87
2021/07/13 08:19:17;;;;;;;0.28;0.13;;;;;;;10.90;83.42;90315.47;5012116;28;20026;-86
2021/07/13 08:21:45;;;;;;;0.17;0.00;;;;;;;10.76;83.71;90323.78;4989090;28;20038;-86
2021/07/13 08:24:11;;;;;;;0.20;0.10;;;;;;;10.63;85.86;90332.81;4996559;28;20033;-87
2021/07/13 08:26:37;;;;;;;0.10;0.05;;;;;;;10.72;85.10;90330.75;4995988;28;20533;-86
2021/07/13 08:29:04;;;;;;;0.68;0.20;;;;;;;10.69;85.92;90336.66;5012411;28;20113;-86
2021/07/13 08:31:31;;;;;;;0.95;0.15;;;;;;;10.57;85.23;90331.59;4979286;28;20026;-87
2021/07/13 08:33:57;;;;;;;0.00;0.00;;;;;;;10.64;84.08;90345.50;4995526;28;20029;-86
2021/07/13 08:36:25;;;;;;;0.43;0.00;;;;;;;10.53;84.83;90340.09;5013093;28;20452;-87
2021/07/13 08:38:54;;;;;;;0.68;0.30;;;;;;;10.55;86.29;90341.59;5010481;28;20486;-87
2021/07/13 08:41:25;;;;;;;2.35;0.57;;;;;;;10.53;86.49;90327.06;4995514;28;20746;-87
2021/07/13 08:43:55;;;;;;;1.85;0.30;;;;;;;10.71;85.49;90319.59;4981179;28;20509;-86
2021/07/13 08:46:21;;;;;;;0.20;0.10;;;;;;;10.51;84.97;90310.25;4976964;28;20132;-86
2021/07/13 08:48:49;;;;;;;0.50;0.20;;;;;;;10.52;83.91;90314.34;5001580;28;20545;-87
2021/07/13 08:51:18;;;;;;;0.25;0.00;;;;;;;10.45;85.96;90307.16;5011701;28;20026;-87
2021/07/13 08:53:47;;;;;;;0.00;0.00;;;;;;;10.42;87.09;90307.06;4996106;28;20022;-88
2021/07/13 08:56:15;;;;;;;1.45;0.17;;;;;;;10.56;86.95;90301.41;5010278;28;20029;-87
2021/07/13 08:58:44;;;;;;;1.40;0.10;;;;;;;10.49;87.30;90287.16;5013814;28;20022;-86
2021/07/13 09:01:10;;;;;;;0.45;0.10;;;;;;;10.57;86.30;90289.91;5011872;28;20075;-84
2021/07/13 09:03:38;;;;;;;0.85;0.00;;;;;;;10.45;86.46;90295.97;5029070;23;20054;-86
2021/07/13 09:06:04;;;;;;;0.00;0.00;;;;;;;10.33;86.75;90286.44;5017182;28;20026;-86
2021/07/13 09:08:31;;;;;;;0.20;0.10;;;;;;;10.42;86.51;90289.59;5000890;28;20072;-86
2021/07/13 09:10:59;;;;;;;0.60;0.10;;;;;;;10.35;87.41;90294.66;4997187;28;20416;-86
2021/07/13 09:13:26;;;;;;;0.25;0.10;;;;;;;10.50;88.03;90286.06;5013895;28;20406;-86
2021/07/13 09:15:55;;;;;;;0.47;0.00;;;;;;;10.61;87.19;90288.13;4997275;28;20022;-85
2021/07/13 09:18:40;;;;;;;0.40;0.13;;;;;;;10.73;86.44;90291.31;4999000;28;20032;-86
2021/07/13 09:21:09;;;;;;;0.70;0.30;;;;;;;10.88;85.85;90292.34;4999509;28;20022;-86
2021/07/13 09:23:37;;;;;;;0.60;0.15;;;;;;;11.03;86.15;90295.25;5014509;28;20037;-86
2021/07/13 09:26:03;;;;;;;0.40;0.05;;;;;;;11.00;85.64;90310.47;5023138;28;20022;-86
2021/07/13 09:28:30;;;;;;;0.17;0.10;;;;;;;11.00;85.91;90323.50;5023737;28;20013;-86
2021/07/13 09:30:59;;;;;;;0.40;0.20;;;;;;;10.94;85.98;90324.88;5037737;28;20029;-86
2021/07/13 09:33:31;;;;;;;0.55;0.30;;;;;;;11.07;86.50;90328.09;5020357;28;20029;-86
2021/07/13 09:36:00;;;;;;;0.93;0.20;;;;;;;11.00;85.11;90328.72;5020711;28;20112;-86
2021/07/13 09:38:27;;;;;;;0.68;0.30;;;;;;;10.92;86.62;90328.94;5036652;28;20029;-86
2021/07/13 09:41:21;;;;;;;1.15;0.47;;;;;;;10.85;84.37;90328.75;5036312;28;20029;-88
2021/07/13 09:44:01;;;;;;;0.68;0.20;;;;;;;10.94;83.98;90339.75;5000059;28;20037;-86
2021/07/13 09:46:34;;;;;;;2.72;0.30;;;;;;;10.96;86.22;90346.13;4997397;28;20137;-85
2021/07/13 09:49:20;;;;;;;0.52;0.22;;;;;;;10.92;83.97;90353.16;5030722;28;20038;-86
2021/07/13 09:52:02;;;;;;;0.50;0.22;;;;;;;10.89;84.45;90361.66;5014228;28;20022;-86
2021/07/13 09:54:35;;;;;;;1.15;0.40;;;;;;;10.80;86.24;90362.94;5012676;28;20045;-87
2021/07/13 09:57:15;;;;;;;1.30;0.32;;;;;;;10.90;85.44;90360.53;5013796;28;20128;-86
2021/07/13 09:59:50;;;;;;;1.30;0.80;;;;;;;10.89;85.37;90366.84;5012427;28;20053;-86
2021/07/13 10:02:17;;;;;;;1.85;0.50;;;;;;;10.95;83.47;90381.13;5018358;28;20033;-86
2021/07/13 10:04:46;;;;;;;0.68;0.30;;;;;;;10.95;84.11;90378.53;5032946;28;20059;-86
2021/07/13 10:07:18;;;;;;;0.73;0.30;;;;;;;10.87;87.01;90383.94;5033503;28;20430;-85
2021/07/13 10:09:50;;;;;;;0.90;0.50;;;;;;;10.90;85.08;90378.03;5033252;28;20032;-86
2021/07/13 10:12:19;;;;;;;1.33;0.40;;;;;;;10.92;83.35;90368.03;5033309;28;20036;-86
2021/07/13 10:14:46;;;;;;;2.83;0.60;;;;;;;10.78;83.67;90365.91;5022514;28;20030;-86
2021/07/13 10:17:14;;;;;;;1.63;0.50;;;;;;;10.76;84.46;90357.66;5008557;28;20033;-86
2021/07/13 10:19:46;;;;;;;1.55;0.50;;;;;;;10.91;84.86;90363.91;4993572;28;20493;-85
2021/07/13 10:22:13;;;;;;;2.22;0.45;;;;;;;10.80;85.30;90363.69;4993014;28;20134;-86
2021/07/13 10:24:39;;;;;;;1.38;0.60;;;;;;;10.96;85.78;90364.38;5019027;28;20032;-85
2021/07/13 10:27:05;;;;;;;3.03;0.70;;;;;;;11.12;84.52;90360.94;5017943;28;20021;-85
2021/07/13 10:29:36;;;;;;;1.20;0.60;;;;;;;11.30;84.13;90362.03;5033354;28;20033;-85
2021/07/13 10:32:10;;;;;;;1.13;0.50;;;;;;;11.31;83.80;90353.13;5001179;28;20095;-86
2021/07/13 10:34:53;;;;;;;0.82;0.40;;;;;;;11.32;79.96;90344.19;5045674;28;20085;-85
2021/07/13 10:37:41;;;;;;;1.02;0.63;;;;;;;11.20;81.07;90344.31;5037185;28;20183;-85
2021/07/13 10:40:13;;;;;;;1.42;0.68;;;;;;;11.37;82.95;90362.16;5017531;28;20037;-85
2021/07/13 10:42:43;;;;;;;1.40;0.65;;;;;;;11.62;81.95;90354.00;5011655;28;20022;-85
2021/07/13 10:45:18;;;;;;;1.38;0.60;;;;;;;11.49;83.52;90341.16;5012588;28;20026;-86
2021/07/13 10:48:07;;;;;;;2.15;0.60;;;;;;;11.77;81.00;90336.75;5014845;28;20072;-86
2021/07/13 10:50:37;;;;;;;2.88;1.05;;;;;;;11.93;79.66;90340.75;4998551;28;20045;-85
2021/07/13 10:53:23;;;;;;;1.50;0.80;;;;;;;12.08;80.70;90343.59;5016159;28;20033;-86
2021/07/13 10:56:01;;;;;;;1.38;0.70;;;;;;;12.21;78.42;90339.69;5015891;28;20101;-86
2021/07/13 10:58:38;;;;;;;1.60;0.85;;;;;;;12.25;78.27;90340.50;5018940;28;20022;-86
2021/07/13 11:01:04;;;;;;;1.52;0.75;;;;;;;12.19;79.48;90344.50;5018263;28;20089;-86
2021/07/13 11:03:32;;;;;;;1.45;0.60;;;;;;;12.25;80.06;90343.09;5034781;28;20103;-85
2021/07/13 11:06:10;;;;;;;2.35;0.60;;;;;;;12.20;79.62;90338.94;5035863;28;20029;-85
2021/07/13 11:09:01;;;;;;;3.53;0.73;;;;;;;12.48;81.00;90344.94;5036148;28;20032;-85
2021/07/13 11:11:29;;;;;;;2.45;1.10;;;;;;;12.62;79.62;90371.25;5035094;28;20688;-85
2021/07/13 11:13:59;;;;;;;2.15;0.73;;;;;;;12.62;78.99;90373.88;5036388;28;20524;-86
2021/07/13 11:16:35;;;;;;;6.63;2.10;;;;;;;12.53;80.80;90386.44;5035476;28;20029;-85
2021/07/13 11:19:02;;;;;;;4.38;1.70;;;;;;;12.25;80.84;90389.38;5036026;28;20482;-85
2021/07/13 11:21:29;;;;;;;2.40;1.25;;;;;;;12.34;80.42;90382.81;5018876;28;20026;-85
2021/07/13 11:23:56;;;;;;;6.03;1.20;;;;;;;12.34;80.42;90380.19;5018528;28;20477;-86
2021/07/13 11:26:22;;;;;;;1.70;0.80;;;;;;;12.33;79.04;90381.31;5031595;28;22001;-85
2021/07/13 11:28:48;;;;;;;2.90;1.33;;;;;;;12.24;79.73;90378.19;5003548;28;20049;-85
2021/07/13 11:31:27;;;;;;;1.38;0.70;;;;;;;12.19;79.50;90379.25;5001450;28;20079;-85
2021/07/13 11:33:53;;;;;;;1.77;0.88;;;;;;;12.02;79.20;90378.97;5002475;28;20026;-85
2021/07/13 11:36:31;;;;;;;0.80;0.50;;;;;;;12.03;80.45;90380.47;5017665;28;20033;-85
2021/07/13 11:38:58;;;;;;;2.00;0.68;;;;;;;12.12;80.16;90378.34;4987624;28;20417;-86
2021/07/13 11:41:24;;;;;;;1.23;0.60;;;;;;;12.07;80.98;90382.00;5019944;28;20052;-86
2021/07/13 11:43:51;;;;;;;1.38;0.60;;;;;;;12.14;80.95;90384.00;5003363;28;20044;-85
2021/07/13 11:46:19;;;;;;;1.02;0.60;;;;;;;12.08;82.09;90385.38;4985979;28;20532;-85
2021/07/13 11:48:57;;;;;;;1.67;0.50;;;;;;;12.11;81.04;90389.91;5018008;28;20474;-86
2021/07/13 11:51:35;;;;;;;0.45;0.30;;;;;;;12.09;80.09;90384.28;5016783;28;20030;-85
2021/07/13 11:54:04;;;;;;;0.85;0.45;;;;;;;11.85;82.00;90380.91;5018244;28;20081;-85
2021/07/13 11:56:30;;;;;;;1.45;0.65;;;;;;;11.86;80.09;90379.81;5002336;28;20029;-86
2021/07/13 11:58:56;;;;;;;0.93;0.47;;;;;;;11.84;80.24;90384.66;5009216;28;20048;-86
2021/07/13 12:01:23;;;;;;;0.95;0.50;;;;;;;11.79;80.92;90379.66;5036156;28;20029;-85
2021/07/13 12:03:52;;;;;;;2.00;0.70;;;;;;;11.62;79.42;90390.56;5020178;28;20056;-85
2021/07/13 12:06:19;;;;;;;1.13;0.55;;;;;;;11.67;80.45;90401.47;5037945;28;20026;-85